Paderborn Lippstadt Airport EDLP

Flugplatz Daten

Name: Paderborn Lippstadt Airport

Ident: EDLP

Lat: 51,61410141

Long: 8,616319656

Platzhöhe: 699 ft

IataCode: PAD

City: Paderborn

Metar

2021/10/20 13:20
EDLP 201320Z 22022KT 9999 SCT030 16/11 Q1004

Taf

2021/10/20 12:27
TAF TAF EDLP 201100Z 2012/2112 20013KT 9999 FEW030
TEMPO 2012/2019 22015G30KT
TEMPO 2019/2112 22020G35KT SHRA BKN020CB PROB30
TEMPO 2102/2108 24025G45KT 4500 TSRA
Gewünschte Webcam nicht vorhanden? Dann fügen Sie eine hinzu. Sie wird dann so schnell wie möglich freigeschaltet
Url: Title: